CheckWX is a tool to help pilots better visualize weather data.  It is not intended as a substitute for an official pre-flight weather briefing.

20:11:14 UTC

KECU METAR
Edwards County Airport
Rocksprings, Texas, USA
Current

16 mins ago

KECU 231955Z AUTO 13005KT 1SM BR 19/18 A3002 RMK AO2
Observed
Apr-23 @ 19:55 UTC
Wind
  • 130° at 5 KTS
Visibility
1 SM
Conditions
Mist
Temperature
19°C / 66°F
Dewpoint
18°C / 64°F
Humidity
94%
Altimeter
30.02" Hg
Pressure
1016.62 hPa
Previous

36 mins ago

KECU 231935Z AUTO 13005G10KT 3/4SM BR 18/18 A3002 RMK AO2
Observed
Apr-23 @ 19:35 UTC
Wind
  • 130° at 5 KTS
  • Gusting to 10 KTS
Visibility
3/4 SM
Conditions
Mist
Temperature
18°C / 64°F
Dewpoint
18°C / 64°F
Humidity
100%
Altimeter
30.02" Hg
Pressure
1016.62 hPa
Previous

56 mins ago

KECU 231915Z AUTO 11006KT 3/4SM BR 18/18 A3002 RMK AO2
Observed
Apr-23 @ 19:15 UTC
Wind
  • 110° at 6 KTS
Visibility
3/4 SM
Conditions
Mist
Temperature
18°C / 64°F
Dewpoint
18°C / 64°F
Humidity
100%
Altimeter
30.02" Hg
Pressure
1016.62 hPa